Time;durP1;ratioP1;P1;durP2;ratioP2;P2;SDS_P1;SDS_P2;PMS_P1;PMS_P2;Temp;Humidity;BMP_temperature;BMP_pressure;BME280_temperature;BME280_humidity;BME280_pressure;Samples;Min_cycle;Max_cycle;Signal;HPM_P1;HPM_P2
2023/09/15 00:00:44;;;;;;;6.95;1.55;;;;;;;17.30;98.31;101973.16;5059177;28;20021;-69
2023/09/15 00:03:09;;;;;;;5.90;1.70;;;;;;;17.14;98.62;101958.13;5059597;28;20056;-69
2023/09/15 00:05:37;;;;;;;4.68;1.63;;;;;;;17.32;98.45;101977.31;5079666;28;20026;-69
2023/09/15 00:08:04;;;;;;;4.22;1.33;;;;;;;17.17;98.08;101951.44;5062365;28;20546;-69
2023/09/15 00:10:31;;;;;;;5.80;1.75;;;;;;;17.34;97.92;101980.66;5062248;28;20033;-69
2023/09/15 00:13:00;;;;;;;8.05;1.60;;;;;;;17.40;97.73;101984.41;5062493;28;20035;-69
2023/09/15 00:15:26;;;;;;;3.90;1.63;;;;;;;17.34;97.48;101963.50;5079758;28;20043;-68
2023/09/15 00:17:52;;;;;;;5.40;1.42;;;;;;;17.52;97.25;101971.78;5077776;28;20471;-69
2023/09/15 00:20:18;;;;;;;6.80;1.40;;;;;;;17.48;97.08;101958.81;5062284;28;20092;-69
2023/09/15 00:22:49;;;;;;;5.13;1.70;;;;;;;17.64;97.11;101973.81;5063505;28;20024;-69
2023/09/15 00:25:21;;;;;;;7.75;1.75;;;;;;;17.75;96.33;101976.69;5077462;28;20111;-70
2023/09/15 00:27:52;;;;;;;5.53;1.48;;;;;;;17.82;95.95;101974.81;5060266;28;20021;-69
2023/09/15 00:30:19;;;;;;;6.30;1.50;;;;;;;17.89;95.86;101982.94;5081532;28;20024;-70
2023/09/15 00:32:46;;;;;;;7.35;1.70;;;;;;;17.91;95.94;101978.06;5082444;28;20047;-69
2023/09/15 00:35:18;;;;;;;8.25;1.45;;;;;;;18.02;95.45;101979.28;5082191;28;20032;-70
2023/09/15 00:37:46;;;;;;;4.25;1.60;;;;;;;18.06;95.26;101977.78;5065467;28;20028;-69
2023/09/15 00:40:18;;;;;;;7.15;1.60;;;;;;;18.11;94.92;101980.66;5080520;28;20036;-69
2023/09/15 00:42:45;;;;;;;5.68;1.50;;;;;;;18.16;95.07;101980.84;5081567;28;20024;-69
2023/09/15 00:45:14;;;;;;;6.25;1.60;;;;;;;18.14;95.49;101974.78;5065220;28;20411;-69
2023/09/15 00:47:43;;;;;;;10.05;1.55;;;;;;;18.18;95.24;101973.31;5082414;28;20063;-69
2023/09/15 00:50:13;;;;;;;6.60;1.50;;;;;;;18.22;95.35;101970.97;5046844;28;20032;-69
2023/09/15 00:52:38;;;;;;;5.90;1.80;;;;;;;18.31;94.88;101981.38;5082021;28;20032;-69
2023/09/15 00:55:06;;;;;;;6.97;1.65;;;;;;;18.31;94.84;101975.94;5063511;28;20048;-68
2023/09/15 00:57:37;;;;;;;5.25;1.50;;;;;;;18.31;94.96;101973.19;5080504;28;20096;-69
2023/09/15 01:00:03;;;;;;;4.72;1.60;;;;;;;18.36;95.13;101966.25;5048345;28;20039;-69
2023/09/15 01:02:29;;;;;;;6.80;1.70;;;;;;;18.40;95.05;101965.56;5082224;28;20036;-69
2023/09/15 01:04:56;;;;;;;9.80;1.73;;;;;;;18.49;94.92;101969.69;5061351;28;20080;-69
2023/09/15 01:07:21;;;;;;;7.18;2.05;;;;;;;18.48;94.84;101970.75;5079879;28;20028;-69
2023/09/15 01:09:47;;;;;;;6.65;1.90;;;;;;;18.56;94.84;101961.44;5061988;28;20044;-70
2023/09/15 01:12:12;;;;;;;9.95;2.00;;;;;;;18.58;94.93;101969.41;5076331;28;20029;-69
2023/09/15 01:14:37;;;;;;;8.13;1.83;;;;;;;18.62;94.85;101962.44;5090859;28;20093;-69
2023/09/15 01:17:16;;;;;;;6.85;1.80;;;;;;;18.61;94.67;101958.88;5075036;28;20239;-69
2023/09/15 01:20:09;;;;;;;6.82;1.65;;;;;;;18.64;95.01;101966.63;5080323;28;20088;-69
2023/09/15 01:22:53;;;;;;;7.20;1.75;;;;;;;18.64;95.15;101961.16;5079993;28;20119;-69
2023/09/15 01:25:51;;;;;;;7.43;1.90;;;;;;;18.68;95.03;101959.66;5079227;28;20051;-69
2023/09/15 01:28:46;;;;;;;9.15;2.08;;;;;;;18.69;95.10;101952.31;5060493;28;20159;-69
2023/09/15 01:31:13;;;;;;;8.90;1.98;;;;;;;18.70;94.99;101945.78;5072873;28;20064;-69
2023/09/15 01:33:38;;;;;;;9.05;1.80;;;;;;;18.62;95.63;101946.09;5094789;28;20082;-69
2023/09/15 01:36:04;;;;;;;7.60;1.70;;;;;;;18.59;95.74;101944.63;5078097;28;20041;-69
2023/09/15 01:38:31;;;;;;;8.48;1.77;;;;;;;18.72;95.80;101950.00;5078986;28;20033;-69
2023/09/15 01:40:56;;;;;;;10.30;2.08;;;;;;;18.74;95.61;101957.94;5078367;28;20032;-69
2023/09/15 01:43:22;;;;;;;7.03;2.05;;;;;;;18.72;95.59;101950.00;5062404;28;20024;-69
2023/09/15 01:45:47;;;;;;;6.93;2.00;;;;;;;18.79;95.56;101960.84;5063125;28;20030;-70
2023/09/15 01:48:14;;;;;;;7.80;2.50;;;;;;;18.83;95.55;101962.03;5062275;28;20020;-69
2023/09/15 01:50:41;;;;;;;9.27;2.03;;;;;;;18.80;95.63;101956.22;5063578;28;20016;-69
2023/09/15 01:53:07;;;;;;;11.20;2.15;;;;;;;18.84;95.16;101957.41;5063515;28;20085;-69
2023/09/15 01:55:33;;;;;;;9.82;2.17;;;;;;;18.83;94.94;101956.59;5085298;28;20024;-68
2023/09/15 01:57:59;;;;;;;8.85;2.35;;;;;;;18.77;95.27;101950.16;5084088;28;20088;-69
2023/09/15 02:00:32;;;;;;;10.48;2.00;;;;;;;18.83;95.38;101944.84;5084359;28;20078;-72
2023/09/15 02:02:57;;;;;;;11.88;1.95;;;;;;;18.95;95.33;101965.69;5083869;28;20040;-71
2023/09/15 02:05:24;;;;;;;6.97;1.83;;;;;;;18.88;95.69;101964.94;5083279;28;20036;-69
2023/09/15 02:07:50;;;;;;;9.02;1.90;;;;;;;18.74;95.76;101942.44;5068555;28;20062;-69
2023/09/15 02:10:16;;;;;;;10.18;2.22;;;;;;;18.88;95.92;101958.66;5068934;28;20028;-69
2023/09/15 02:12:41;;;;;;;10.07;2.00;;;;;;;18.88;95.90;101964.09;5101747;28;20028;-70
2023/09/15 02:15:07;;;;;;;7.38;1.88;;;;;;;18.85;96.34;101964.56;5067101;28;20029;-69
2023/09/15 02:17:32;;;;;;;9.00;2.00;;;;;;;18.78;97.21;101968.19;5085142;28;20020;-69
2023/09/15 02:19:58;;;;;;;10.48;2.10;;;;;;;18.76;97.61;101970.28;5049311;28;20182;-71
2023/09/15 02:22:24;;;;;;;10.80;2.13;;;;;;;18.76;97.99;101980.38;5064214;28;20037;-68
2023/09/15 02:24:50;;;;;;;7.68;2.30;;;;;;;18.71;98.19;101975.56;5074151;28;20046;-68
2023/09/15 02:27:15;;;;;;;9.88;2.38;;;;;;;18.63;98.99;101975.84;5086951;28;20055;-68
2023/09/15 02:29:40;;;;;;;8.13;2.00;;;;;;;18.57;99.48;101978.63;5098438;28;20037;-70
2023/09/15 02:32:06;;;;;;;13.15;2.50;;;;;;;18.46;100.00;101975.56;5083246;28;20382;-69
2023/09/15 02:34:31;;;;;;;10.20;2.13;;;;;;;18.44;100.00;101974.97;5081137;28;20067;-69
2023/09/15 02:36:57;;;;;;;8.90;2.42;;;;;;;18.43;100.00;101973.28;5063390;28;20032;-68
2023/09/15 02:39:22;;;;;;;8.65;2.33;;;;;;;18.36;100.00;101979.88;5080409;28;20104;-68
2023/09/15 02:41:47;;;;;;;8.63;2.60;;;;;;;18.30;100.00;101971.50;5076045;28;20368;-68
2023/09/15 02:44:13;;;;;;;10.52;2.13;;;;;;;18.19;100.00;101955.06;5078796;28;20031;-69
2023/09/15 02:46:38;;;;;;;7.60;2.25;;;;;;;18.21;100.00;101967.41;5062813;28;20032;-69
2023/09/15 02:49:04;;;;;;;7.53;2.13;;;;;;;18.25;100.00;101986.88;5063794;28;20016;-70
2023/09/15 02:51:29;;;;;;;7.68;2.33;;;;;;;18.05;100.00;101952.44;5064039;28;20032;-69
2023/09/15 02:53:55;;;;;;;8.07;1.92;;;;;;;18.10;100.00;101957.22;5083388;28;20020;-69
2023/09/15 02:56:22;;;;;;;8.95;2.25;;;;;;;18.14;100.00;101972.06;5082117;28;20092;-69
2023/09/15 02:58:48;;;;;;;10.98;2.47;;;;;;;18.14;100.00;101965.78;5083658;28;20025;-70
2023/09/15 03:01:15;;;;;;;10.15;2.03;;;;;;;18.14;100.00;101968.50;5084615;28;20548;-71
2023/09/15 03:03:40;;;;;;;8.30;2.20;;;;;;;18.14;100.00;101968.50;5079539;28;20049;-68
2023/09/15 03:06:07;;;;;;;10.57;2.35;;;;;;;18.17;100.00;101963.44;5062458;28;20029;-68
2023/09/15 03:08:34;;;;;;;9.15;2.05;;;;;;;18.11;100.00;101958.88;5078535;28;20024;-69
2023/09/15 03:10:59;;;;;;;8.20;2.05;;;;;;;18.14;100.00;101952.97;5076849;28;20047;-69
2023/09/15 03:13:25;;;;;;;8.45;2.13;;;;;;;17.92;100.00;101919.84;5059440;28;20486;-69
2023/09/15 03:15:51;;;;;;;5.90;2.08;;;;;;;18.17;100.00;101951.72;5059491;28;20124;-68
2023/09/15 03:18:17;;;;;;;6.82;2.22;;;;;;;18.18;100.00;101948.78;5076917;28;20046;-68
2023/09/15 03:20:43;;;;;;;7.63;2.30;;;;;;;18.10;100.00;101929.16;5058890;28;20020;-68
2023/09/15 03:23:08;;;;;;;6.93;2.20;;;;;;;18.22;100.00;101955.44;5044631;28;20031;-69
2023/09/15 03:25:34;;;;;;;7.05;2.30;;;;;;;18.15;100.00;101929.34;5081086;28;20024;-69
2023/09/15 03:27:59;;;;;;;8.13;2.17;;;;;;;18.28;100.00;101951.00;5083483;28;20039;-70
2023/09/15 03:30:25;;;;;;;7.40;2.40;;;;;;;18.27;100.00;101947.44;5068550;28;20391;-69
2023/09/15 03:32:50;;;;;;;8.85;2.17;;;;;;;18.24;100.00;101941.59;5052285;28;20092;-69
2023/09/15 03:35:15;;;;;;;11.35;2.80;;;;;;;18.15;100.00;101932.88;5062765;28;20032;-68
2023/09/15 03:37:41;;;;;;;6.80;1.73;;;;;;;18.25;100.00;101949.56;5078236;28;20032;-69
2023/09/15 03:40:11;;;;;;;9.32;2.20;;;;;;;18.29;100.00;101950.78;5065383;28;20090;-69
2023/09/15 03:42:37;;;;;;;7.00;2.05;;;;;;;18.15;100.00;101929.34;5064583;28;20029;-69
2023/09/15 03:45:04;;;;;;;7.40;2.33;;;;;;;18.23;100.00;101934.50;5049486;28;20029;-69
2023/09/15 03:47:29;;;;;;;10.25;2.20;;;;;;;18.16;100.00;101923.66;5066100;28;20060;-68
2023/09/15 03:49:55;;;;;;;8.43;2.13;;;;;;;18.28;100.00;101940.94;5082033;28;20027;-68
2023/09/15 03:52:20;;;;;;;13.85;2.70;;;;;;;18.33;100.00;101942.16;5076349;28;20583;-69
2023/09/15 03:54:46;;;;;;;7.90;2.20;;;;;;;18.35;100.00;101951.78;5083785;28;20030;-69
2023/09/15 03:57:11;;;;;;;12.25;2.58;;;;;;;18.35;100.00;101949.06;5084041;28;20439;-68
2023/09/15 03:59:36;;;;;;;15.15;3.17;;;;;;;18.30;100.00;101944.25;5065949;28;20033;-69
2023/09/15 04:02:03;;;;;;;8.10;1.98;;;;;;;18.31;100.00;101945.13;5066209;28;20444;-70
2023/09/15 04:04:29;;;;;;;9.88;2.80;;;;;;;18.37;100.00;101943.38;5050146;28;20048;-68
2023/09/15 04:06:55;;;;;;;7.70;1.95;;;;;;;18.41;100.00;101952.75;5050522;28;20033;-68
2023/09/15 04:09:24;;;;;;;9.93;2.10;;;;;;;18.42;100.00;101949.84;5069804;28;20028;-68
2023/09/15 04:11:51;;;;;;;11.07;2.55;;;;;;;18.43;100.00;101951.50;5071698;28;20035;-70
2023/09/15 04:14:16;;;;;;;7.25;1.90;;;;;;;18.40;100.00;101959.28;5087498;28;20051;-69
2023/09/15 04:16:41;;;;;;;5.90;1.90;;;;;;;18.43;100.00;101958.84;5047378;28;20028;-70
2023/09/15 04:19:07;;;;;;;6.45;1.80;;;;;;;18.45;100.00;101962.19;5063919;28;20037;-69
2023/09/15 04:21:34;;;;;;;9.02;2.10;;;;;;;18.48;100.00;101959.00;5064222;28;20028;-71
2023/09/15 04:23:59;;;;;;;5.50;2.05;;;;;;;18.48;100.00;101957.13;5063740;28;20047;-70
2023/09/15 04:26:25;;;;;;;7.03;1.80;;;;;;;18.47;100.00;101960.88;5065014;28;20115;-72
2023/09/15 04:28:50;;;;;;;7.65;2.10;;;;;;;18.47;100.00;101951.88;5047573;28;20115;-71
2023/09/15 04:31:15;;;;;;;6.88;1.80;;;;;;;18.36;100.00;101939.00;5030909;28;20030;-70
2023/09/15 04:33:41;;;;;;;5.60;2.10;;;;;;;18.36;100.00;101934.38;5067932;28;20071;-70
2023/09/15 04:36:06;;;;;;;6.07;2.15;;;;;;;18.56;100.00;101953.25;5087161;28;20037;-71
2023/09/15 04:38:32;;;;;;;6.93;1.70;;;;;;;18.50;99.97;101954.97;5070231;28;20015;-71
2023/09/15 04:40:58;;;;;;;5.65;2.03;;;;;;;18.42;99.22;101943.56;5093901;28;20030;-71
2023/09/15 04:43:24;;;;;;;9.07;2.08;;;;;;;18.53;98.33;101949.09;5074592;28;20588;-70
2023/09/15 04:45:50;;;;;;;5.35;2.38;;;;;;;18.47;98.11;101949.97;5050033;28;20028;-70
2023/09/15 04:48:15;;;;;;;7.05;2.20;;;;;;;18.51;97.58;101962.13;5042574;28;20032;-70
2023/09/15 04:50:41;;;;;;;7.95;2.05;;;;;;;18.51;97.02;101962.13;5078075;28;20021;-70
2023/09/15 04:53:07;;;;;;;9.00;2.08;;;;;;;18.55;96.74;101959.78;5057265;28;20055;-71
2023/09/15 04:55:34;;;;;;;7.05;2.00;;;;;;;18.56;96.66;101966.91;5072366;28;20028;-70
2023/09/15 04:57:59;;;;;;;7.72;2.15;;;;;;;18.54;96.69;101969.00;5037768;28;20029;-70
2023/09/15 05:00:29;;;;;;;11.68;2.30;;;;;;;18.52;96.95;101971.97;5073617;28;20033;-70
2023/09/15 05:02:56;;;;;;;4.75;1.70;;;;;;;18.59;96.46;101979.25;5041348;28;20070;-70
2023/09/15 05:05:21;;;;;;;11.52;2.17;;;;;;;18.54;96.43;101963.53;5077107;28;20048;-71
2023/09/15 05:07:47;;;;;;;9.48;2.22;;;;;;;18.66;96.13;101969.94;5078885;28;20031;-70
2023/09/15 05:10:12;;;;;;;6.10;2.03;;;;;;;18.61;96.03;101964.34;5059968;28;20067;-70
2023/09/15 05:12:38;;;;;;;6.18;1.77;;;;;;;18.64;96.04;101974.81;5061604;28;20421;-69
2023/09/15 05:15:04;;;;;;;6.15;2.20;;;;;;;18.70;95.81;101965.69;5060650;28;20036;-69
2023/09/15 05:17:30;;;;;;;6.75;1.92;;;;;;;18.65;95.90;101981.09;5080751;28;20029;-70
2023/09/15 05:19:56;;;;;;;6.63;2.13;;;;;;;18.63;96.00;101978.56;5069460;28;20040;-68
2023/09/15 05:22:22;;;;;;;7.90;1.75;;;;;;;18.64;95.82;101977.53;5072385;28;20028;-72
2023/09/15 05:24:48;;;;;;;5.45;1.67;;;;;;;18.68;95.48;101970.56;5084091;28;20028;-69
2023/09/15 05:27:13;;;;;;;8.50;1.58;;;;;;;18.72;94.93;101968.25;5042392;28;20261;-69
2023/09/15 05:29:39;;;;;;;4.88;1.65;;;;;;;18.69;95.42;101966.78;5062176;28;20092;-70
2023/09/15 05:32:04;;;;;;;5.68;1.63;;;;;;;18.62;95.09;101955.09;5046822;28;20067;-69
2023/09/15 05:34:30;;;;;;;6.88;1.80;;;;;;;18.72;95.21;101969.06;5051691;28;20088;-76
2023/09/15 05:36:56;;;;;;;5.07;1.70;;;;;;;18.64;94.82;101953.00;5053551;28;20032;-71
2023/09/15 05:39:21;;;;;;;5.75;1.88;;;;;;;18.73;95.27;101975.34;5072617;28;20029;-77
2023/09/15 05:41:47;;;;;;;8.15;1.88;;;;;;;18.74;95.36;101979.75;5088539;28;20067;-77
2023/09/15 05:44:12;;;;;;;7.97;1.90;;;;;;;18.80;94.90;101978.03;5037881;28;20024;-83
2023/09/15 05:46:38;;;;;;;5.88;1.58;;;;;;;18.66;94.39;101944.56;5088438;28;20475;-83
2023/09/15 05:49:03;;;;;;;4.25;1.52;;;;;;;18.72;94.68;101969.06;5071510;28;20044;-77
2023/09/15 05:51:29;;;;;;;5.07;1.65;;;;;;;18.80;94.07;101978.84;5062020;28;20032;-70
2023/09/15 05:53:54;;;;;;;7.97;1.70;;;;;;;18.84;93.50;101980.09;5085999;28;20117;-76
2023/09/15 05:56:20;;;;;;;6.32;1.95;;;;;;;18.90;92.93;101981.06;5069363;28;20410;-72
2023/09/15 05:58:45;;;;;;;6.68;1.60;;;;;;;18.88;93.10;101988.66;5081901;28;20028;-68
2023/09/15 06:01:10;;;;;;;4.53;1.55;;;;;;;18.85;93.44;101980.91;5079155;28;20125;-69
2023/09/15 06:03:36;;;;;;;10.27;1.67;;;;;;;18.75;93.67;101965.06;5080384;28;20111;-68
2023/09/15 06:06:02;;;;;;;6.13;1.83;;;;;;;18.75;94.20;101976.81;5062659;28;20548;-68
2023/09/15 06:08:28;;;;;;;5.47;1.70;;;;;;;18.78;95.22;102000.91;5046436;28;20020;-69
2023/09/15 06:10:53;;;;;;;7.97;1.70;;;;;;;18.82;95.60;101990.38;5080681;28;20024;-68
2023/09/15 06:13:19;;;;;;;6.30;1.60;;;;;;;18.82;96.22;101995.84;5062639;28;20047;-68
2023/09/15 06:15:44;;;;;;;8.95;1.85;;;;;;;18.79;96.61;102012.63;5061741;28;20044;-68
2023/09/15 06:18:10;;;;;;;9.70;1.92;;;;;;;18.77;97.70;102003.84;5044039;28;20041;-69
2023/09/15 06:20:35;;;;;;;9.55;1.92;;;;;;;18.73;98.88;101999.91;5044970;28;20071;-70
2023/09/15 06:23:02;;;;;;;6.22;1.60;;;;;;;18.70;99.01;101997.59;5062222;28;20032;-70
2023/09/15 06:25:30;;;;;;;7.07;1.92;;;;;;;18.69;99.36;102002.22;5081176;28;20036;-68
2023/09/15 06:27:56;;;;;;;6.45;2.10;;;;;;;18.62;99.75;102004.16;5046264;28;20475;-69
2023/09/15 06:30:22;;;;;;;5.97;1.70;;;;;;;18.67;99.71;102007.03;5056997;28;20033;-73
2023/09/15 06:32:47;;;;;;;6.85;1.90;;;;;;;18.67;99.78;101992.56;5078497;28;20031;-69
2023/09/15 06:35:13;;;;;;;6.03;1.88;;;;;;;18.75;100.00;102011.44;5060995;28;20081;-70
2023/09/15 06:37:42;;;;;;;7.82;1.70;;;;;;;18.80;100.00;102014.31;5079472;28;20020;-74
2023/09/15 06:40:08;;;;;;;5.97;1.70;;;;;;;18.76;100.00;102000.28;5078688;28;20087;-68
2023/09/15 06:42:34;;;;;;;8.63;1.80;;;;;;;18.87;100.00;102016.97;5048012;28;20047;-71
2023/09/15 06:44:59;;;;;;;5.63;1.80;;;;;;;18.83;100.00;102018.47;5061291;28;20029;-69
2023/09/15 06:47:25;;;;;;;6.88;1.73;;;;;;;18.87;100.00;102023.25;5059847;28;20392;-68
2023/09/15 06:49:50;;;;;;;6.40;1.85;;;;;;;18.81;100.00;102020.59;5064112;28;20032;-69
2023/09/15 06:52:16;;;;;;;7.55;1.50;;;;;;;18.85;99.84;102019.94;5063363;28;20032;-69
2023/09/15 06:54:41;;;;;;;5.60;1.70;;;;;;;18.64;99.58;101996.63;5080805;28;20032;-69
2023/09/15 06:57:07;;;;;;;7.63;1.75;;;;;;;18.70;100.00;102020.22;5063565;28;20047;-68
2023/09/15 06:59:32;;;;;;;8.15;1.90;;;;;;;18.78;99.94;102021.88;5064842;28;20036;-69
2023/09/15 07:02:02;;;;;;;11.75;2.60;;;;;;;18.75;100.00;102019.59;5066055;28;20085;-70
2023/09/15 07:04:30;;;;;;;7.53;1.73;;;;;;;18.59;100.00;102007.34;5080280;28;20048;-69
2023/09/15 07:06:56;;;;;;;11.05;2.25;;;;;;;18.68;100.00;102024.25;5076501;28;20070;-70
2023/09/15 07:09:22;;;;;;;7.25;2.03;;;;;;;18.65;100.00;102024.72;5082177;28;20017;-69
2023/09/15 07:11:47;;;;;;;9.13;1.90;;;;;;;18.51;100.00;102008.47;5089146;28;20024;-69
2023/09/15 07:14:13;;;;;;;7.82;2.30;;;;;;;18.62;100.00;102028.69;5065797;28;20039;-82
2023/09/15 07:16:38;;;;;;;9.35;1.60;;;;;;;18.59;100.00;102037.31;5085198;28;20799;-69
2023/09/15 07:19:04;;;;;;;8.02;1.98;;;;;;;18.60;100.00;102032.69;5081066;28;20484;-69
2023/09/15 07:21:32;;;;;;;6.30;1.80;;;;;;;18.60;100.00;102036.25;5080275;28;20040;-70
2023/09/15 07:23:59;;;;;;;10.77;2.15;;;;;;;18.65;100.00;102031.00;5044171;28;20039;-69
2023/09/15 07:26:26;;;;;;;6.13;1.80;;;;;;;18.64;100.00;102034.78;5063687;28;20063;-68
2023/09/15 07:28:53;;;;;;;7.82;1.92;;;;;;;18.70;100.00;102036.59;5083952;28;20345;-69
2023/09/15 07:31:21;;;;;;;8.43;1.80;;;;;;;18.63;100.00;102035.81;5082959;28;20056;-69
2023/09/15 07:33:51;;;;;;;6.00;2.10;;;;;;;18.63;100.00;102041.25;5064911;28;20043;-69
2023/09/15 07:36:17;;;;;;;5.43;1.80;;;;;;;18.66;100.00;102038.09;5078852;28;20064;-69
2023/09/15 07:38:42;;;;;;;11.60;1.92;;;;;;;18.71;100.00;102046.47;5080068;28;20025;-70
2023/09/15 07:41:07;;;;;;;5.00;1.70;;;;;;;18.68;100.00;102046.06;5060100;28;20028;-70
2023/09/15 07:43:33;;;;;;;7.03;1.55;;;;;;;18.67;100.00;102044.38;5066133;28;20036;-70
2023/09/15 07:45:59;;;;;;;5.18;1.60;;;;;;;18.57;100.00;102023.06;5081069;28;20028;-74
2023/09/15 07:48:24;;;;;;;6.25;1.50;;;;;;;18.71;100.00;102046.47;5079880;28;20088;-69
2023/09/15 07:50:53;;;;;;;6.28;1.65;;;;;;;18.69;100.00;102045.00;5081389;28;20035;-68
2023/09/15 07:53:20;;;;;;;7.00;1.83;;;;;;;18.76;99.54;102048.53;5063975;28;20192;-69
2023/09/15 07:55:45;;;;;;;5.10;1.35;;;;;;;18.81;99.09;102056.03;5081351;28;20032;-69
2023/09/15 07:58:10;;;;;;;6.93;1.50;;;;;;;18.86;98.20;102053.50;5061795;28;20577;-69
2023/09/15 08:00:36;;;;;;;6.60;1.63;;;;;;;18.74;97.91;102040.59;5062003;28;20028;-69
2023/09/15 08:03:01;;;;;;;5.32;1.48;;;;;;;18.78;97.85;102069.06;5080685;28;20032;-69
2023/09/15 08:05:27;;;;;;;5.18;1.33;;;;;;;18.85;97.49;102065.47;5062416;28;20036;-69
2023/09/15 08:07:52;;;;;;;7.90;2.00;;;;;;;18.86;97.74;102061.66;5081261;28;20032;-69
2023/09/15 08:10:19;;;;;;;5.57;1.70;;;;;;;18.76;98.22;102063.00;5080790;28;20055;-69
2023/09/15 08:12:44;;;;;;;7.35;1.67;;;;;;;18.80;98.31;102060.66;5062741;28;20036;-68
2023/09/15 08:15:10;;;;;;;6.78;1.30;;;;;;;18.81;97.90;102056.03;5071003;28;20028;-68
2023/09/15 08:17:36;;;;;;;7.18;1.70;;;;;;;18.91;97.54;102059.13;5087989;28;20024;-71
2023/09/15 08:20:03;;;;;;;5.70;1.70;;;;;;;18.93;97.45;102063.25;5047371;28;20062;-69
2023/09/15 08:22:30;;;;;;;6.53;1.50;;;;;;;18.94;97.54;102047.72;5064458;28;20092;-74
2023/09/15 08:24:55;;;;;;;6.82;1.50;;;;;;;18.98;98.46;102057.16;5080811;28;20574;-70
2023/09/15 08:27:21;;;;;;;7.63;1.77;;;;;;;18.98;98.17;102049.81;5082372;28;20056;-69
2023/09/15 08:29:46;;;;;;;5.63;1.65;;;;;;;19.09;98.06;102058.31;5060731;28;20029;-69
2023/09/15 08:32:14;;;;;;;6.68;1.60;;;;;;;19.08;98.90;102056.66;5065352;28;20025;-70
2023/09/15 08:34:41;;;;;;;8.48;1.80;;;;;;;19.19;98.37;102053.16;5088907;28;20169;-69
2023/09/15 08:37:06;;;;;;;7.55;1.48;;;;;;;19.25;98.32;102061.28;5088079;28;20032;-69
2023/09/15 08:39:32;;;;;;;5.07;1.60;;;;;;;19.38;98.05;102056.75;5095766;28;20034;-69
2023/09/15 08:42:04;;;;;;;9.10;2.15;;;;;;;19.51;97.60;102053.03;5069289;28;20024;-73
2023/09/15 08:44:31;;;;;;;7.00;2.00;;;;;;;19.65;96.98;102054.56;5071223;28;20028;-69
2023/09/15 08:46:58;;;;;;;4.78;1.20;;;;;;;19.69;96.65;102053.03;5091787;28;20016;-69
2023/09/15 08:49:24;;;;;;;4.90;1.52;;;;;;;19.70;95.65;102050.06;5062059;28;20028;-69
2023/09/15 08:51:51;;;;;;;5.85;1.30;;;;;;;19.78;95.02;102051.66;5050065;28;20059;-71
2023/09/15 08:54:17;;;;;;;5.28;1.38;;;;;;;19.78;93.74;102062.56;5095200;28;20467;-69
2023/09/15 08:56:44;;;;;;;3.65;1.25;;;;;;;19.91;92.77;102056.09;5071381;28;20048;-69
2023/09/15 08:59:10;;;;;;;7.85;1.40;;;;;;;19.95;91.47;102054.56;5070253;28;20028;-69
2023/09/15 09:01:36;;;;;;;4.05;1.30;;;;;;;19.88;90.68;102042.91;5078846;28;20061;-69
2023/09/15 09:04:03;;;;;;;8.20;1.70;;;;;;;19.92;90.00;102057.78;5100142;28;20044;-69
2023/09/15 09:06:32;;;;;;;3.85;1.45;;;;;;;19.96;88.77;102061.69;5065216;28;20035;-69
2023/09/15 09:08:59;;;;;;;6.70;1.60;;;;;;;19.98;87.83;102062.31;5099491;28;20484;-70
2023/09/15 09:11:24;;;;;;;6.10;1.38;;;;;;;19.98;87.04;102045.09;5084498;28;20043;-69
2023/09/15 09:13:53;;;;;;;4.70;1.30;;;;;;;20.09;86.52;102057.94;5090540;28;20024;-69
2023/09/15 09:16:20;;;;;;;5.10;1.38;;;;;;;20.03;86.85;102065.16;5086725;28;20056;-69
2023/09/15 09:19:00;;;;;;;5.22;1.48;;;;;;;20.07;86.53;102057.38;5089718;28;20063;-69
2023/09/15 09:21:28;;;;;;;4.82;1.70;;;;;;;20.09;86.56;102057.94;5081742;28;20032;-69
2023/09/15 09:23:54;;;;;;;6.15;1.50;;;;;;;20.11;86.63;102053.94;5086336;28;20588;-69
2023/09/15 09:26:20;;;;;;;7.97;1.63;;;;;;;19.97;86.76;102037.94;5063861;28;20096;-69
2023/09/15 09:28:46;;;;;;;5.85;1.63;;;;;;;19.92;86.95;102046.84;5084360;28;20055;-70
2023/09/15 09:31:12;;;;;;;6.70;1.30;;;;;;;20.04;86.70;102066.84;5061297;28;20088;-69
2023/09/15 09:33:38;;;;;;;6.85;1.80;;;;;;;20.14;86.16;102067.13;5060749;28;20038;-70
2023/09/15 09:36:14;;;;;;;4.55;1.13;;;;;;;19.84;86.16;102022.59;5059058;28;20510;-71
2023/09/15 09:38:51;;;;;;;5.40;1.70;;;;;;;20.13;86.01;102068.22;5064702;28;20115;-69
2023/09/15 09:41:18;;;;;;;5.38;1.52;;;;;;;20.12;86.29;102066.50;5063689;28;20119;-70
2023/09/15 09:43:46;;;;;;;2.60;1.30;;;;;;;20.01;86.21;102044.63;5058403;28;20028;-69
2023/09/15 09:46:13;;;;;;;7.40;1.70;;;;;;;20.18;85.51;102062.84;5059324;28;20032;-69
2023/09/15 09:48:41;;;;;;;11.65;1.70;;;;;;;20.14;86.00;102064.41;5075098;28;20016;-69
2023/09/15 09:51:07;;;;;;;5.13;1.50;;;;;;;20.13;85.96;102068.22;5076356;28;20055;-69
2023/09/15 09:53:35;;;;;;;3.97;1.40;;;;;;;20.16;86.28;102064.16;5037264;28;20052;-70
2023/09/15 09:56:04;;;;;;;4.03;1.38;;;;;;;20.18;86.04;102067.50;5042248;28;20466;-70
2023/09/15 09:58:35;;;;;;;6.80;1.40;;;;;;;20.18;86.22;102076.53;5061037;28;20411;-69
2023/09/15 10:01:01;;;;;;;8.43;1.45;;;;;;;20.21;87.00;102088.06;5043632;28;20032;-68
2023/09/15 10:03:27;;;;;;;7.50;1.70;;;;;;;20.15;87.73;102079.72;5059228;28;20052;-71
2023/09/15 10:05:52;;;;;;;8.77;1.60;;;;;;;20.08;88.06;102078.16;5079844;28;20376;-71
2023/09/15 10:08:18;;;;;;;6.95;1.83;;;;;;;19.93;89.07;102073.94;5078325;28;20139;-70
2023/09/15 10:10:46;;;;;;;4.57;1.20;;;;;;;20.01;88.84;102086.44;5062196;28;20028;-70
2023/09/15 10:13:13;;;;;;;10.02;1.60;;;;;;;20.00;88.88;102082.06;5080282;28;20423;-70
2023/09/15 10:15:44;;;;;;;5.70;1.50;;;;;;;19.94;89.65;102092.00;5064535;28;20032;-70
2023/09/15 10:18:12;;;;;;;7.20;1.58;;;;;;;19.95;89.77;102084.63;5087691;28;20058;-71
2023/09/15 10:20:45;;;;;;;7.07;1.67;;;;;;;19.96;89.73;102083.56;5043091;28;20041;-70
2023/09/15 10:23:14;;;;;;;4.25;1.33;;;;;;;19.89;89.92;102069.97;5023372;28;20048;-70
2023/09/15 10:25:46;;;;;;;5.82;2.00;;;;;;;19.97;90.13;102063.38;5046545;28;20037;-70
2023/09/15 10:28:14;;;;;;;6.07;1.50;;;;;;;20.15;90.00;102085.19;5035876;28;20142;-70
2023/09/15 10:30:40;;;;;;;3.85;1.40;;;;;;;20.17;90.27;102074.03;5036428;28;20129;-70
2023/09/15 10:33:07;;;;;;;5.80;1.60;;;;;;;20.32;90.56;102081.78;5036670;28;20073;-70
2023/09/15 10:35:33;;;;;;;8.55;1.50;;;;;;;20.32;91.16;102073.59;5021275;28;20041;-70
2023/09/15 10:38:03;;;;;;;6.20;1.67;;;;;;;20.35;91.23;102081.34;5022981;28;20097;-70
2023/09/15 10:41:05;;;;;;;5.82;1.40;;;;;;;20.30;90.83;102073.00;5037958;28;20052;-70
2023/09/15 10:43:31;;;;;;;5.63;1.70;;;;;;;20.29;89.90;102082.25;5007072;28;20037;-70
2023/09/15 10:46:06;;;;;;;7.10;1.40;;;;;;;20.33;88.91;102094.38;5019630;28;20076;-70
2023/09/15 10:48:46;;;;;;;7.63;1.30;;;;;;;20.44;88.08;102082.66;5019513;28;20500;-70
2023/09/15 10:51:15;;;;;;;5.38;1.40;;;;;;;20.56;87.33;102086.31;5036011;28;20072;-71
2023/09/15 10:53:48;;;;;;;7.57;1.30;;;;;;;20.60;87.15;102092.97;5080079;28;20044;-70
2023/09/15 10:56:16;;;;;;;5.20;1.30;;;;;;;20.71;86.60;102088.56;5078778;28;20399;-70
2023/09/15 10:58:43;;;;;;;6.32;1.50;;;;;;;20.79;85.89;102085.47;5044075;28;20416;-70
2023/09/15 11:01:10;;;;;;;5.03;1.67;;;;;;;20.80;85.83;102081.69;5063483;28;20028;-70
2023/09/15 11:03:37;;;;;;;4.70;1.10;;;;;;;20.92;85.45;102081.69;5063180;28;20055;-70
2023/09/15 11:06:08;;;;;;;3.38;1.15;;;;;;;20.95;84.86;102077.66;5080837;28;20028;-70
2023/09/15 11:08:35;;;;;;;4.82;1.15;;;;;;;21.03;84.22;102086.34;5081680;28;20032;-70
2023/09/15 11:11:07;;;;;;;5.00;1.55;;;;;;;21.12;83.58;102078.59;5063048;28;20025;-70
2023/09/15 11:13:33;;;;;;;6.38;1.30;;;;;;;21.29;82.78;102081.44;5081982;28;20021;-70
2023/09/15 11:15:59;;;;;;;5.88;1.45;;;;;;;21.30;82.26;102072.19;5081348;28;20025;-70
2023/09/15 11:18:26;;;;;;;4.00;1.23;;;;;;;21.21;81.94;102046.22;5080001;28;20116;-70
2023/09/15 11:20:52;;;;;;;3.92;1.30;;;;;;;21.41;81.65;102059.56;5081194;28;20048;-70